Decoded Metar for CYYH (SPENCE BAY in NU, CANADA) (IATA:YYH) | Meteo·Mobile Aviation Weather
aviador You're here:

CYYH Decoded Metar

SPENCE BAY in NU, CANADA
Report Time2019-04-23 16:00:00
UTC Time2019-04-23 16:41:53
Flight Rules vfr VFR
Wind310° at 10 kt
W.Decomp.*RWY 33: 10.0 kt HW 0.9 kt LCW
Visibility9999 m
Phenomena:Ice Crystals
Fog
Clouds:Few 050 Hf
Broken 220 Hf
Expected CloudBase > 1,600 ft AGL from Temp-Dew spread
Ceiling22,000 ft
Temp-21°C (ISA -36)
Dew Point-25°C (70% RH)
AAT-28.3°C
QNH1018 hPa
Density Alt-4,669 ft
Elevation92 ft
Report Wrong Elevation
Raw Report
CYYH 231600Z 31010KT 15SM IC VCFG FEW050 BKN220 M21/M25 A3007 RMK
SC1CI6 SC TR FG BNK SE SLP189=

Extra information for CYYH:More info

Metar Taf Metar & Taf Last 4 Metars F.Rules Stats Wind Profile Meteogram Temp Stats Airport Information Weather charts Add Link Nearby VenuesMetar ALERT Operation Metar Decoded Social comments